createdAt,value
2019-02-09T00:00:28.010Z,8.31
2019-02-09T00:01:12.293Z,8.31
2019-02-09T00:01:45.333Z,8.31
2019-02-09T00:02:18.297Z,8.31
2019-02-09T00:02:51.347Z,8.25
2019-02-09T00:03:24.382Z,8.25
2019-02-09T00:03:57.495Z,8.25
2019-02-09T00:04:30.534Z,8.19
2019-02-09T00:05:03.892Z,8.19
2019-02-09T00:05:36.903Z,8.19
2019-02-09T00:06:10.851Z,8.19
2019-02-09T00:06:43.845Z,8.19
2019-02-09T00:07:17.089Z,8.19
2019-02-09T00:07:50.193Z,8.19
2019-02-09T00:08:23.363Z,8.19
2019-02-09T00:08:56.343Z,8.19
2019-02-09T00:09:29.351Z,8.19
2019-02-09T00:10:02.882Z,8.13
2019-02-09T00:10:35.874Z,8.13
2019-02-09T00:11:08.951Z,8.13
2019-02-09T00:11:41.886Z,8.13
2019-02-09T00:12:14.784Z,8.13
2019-02-09T00:12:47.905Z,8.13
2019-02-09T00:13:20.906Z,8.13
2019-02-09T00:13:54.030Z,8.13
2019-02-09T00:14:26.937Z,8.13
2019-02-09T00:14:59.977Z,8.06
2019-02-09T00:15:33.069Z,8.13
2019-02-09T00:16:06.243Z,8.06
2019-02-09T00:16:39.264Z,8.06
2019-02-09T00:17:12.297Z,8.06
2019-02-09T00:17:45.285Z,8.06
2019-02-09T00:18:18.401Z,8.06
2019-02-09T00:18:51.270Z,8.06
2019-02-09T00:19:24.222Z,8.00
2019-02-09T00:19:57.207Z,8.00
2019-02-09T00:20:30.237Z,8.00
2019-02-09T00:21:04.029Z,7.94
2019-02-09T00:21:37.158Z,7.94
2019-02-09T00:22:10.154Z,7.94
2019-02-09T00:22:43.284Z,7.87
2019-02-09T00:23:16.260Z,7.87
2019-02-09T00:23:49.562Z,7.81
2019-02-09T00:24:22.548Z,7.81
2019-02-09T00:24:55.455Z,7.81
2019-02-09T00:25:28.467Z,7.81
2019-02-09T00:26:01.523Z,7.81
2019-02-09T00:26:34.496Z,7.75
2019-02-09T00:27:07.411Z,7.75
2019-02-09T00:27:40.440Z,7.75
2019-02-09T00:28:13.466Z,7.75
2019-02-09T00:28:46.467Z,7.75
2019-02-09T00:29:19.544Z,7.69
2019-02-09T00:29:52.446Z,7.69
2019-02-09T00:30:25.610Z,7.69
2019-02-09T00:30:58.734Z,7.69
2019-02-09T00:31:32.393Z,7.69
2019-02-09T00:32:05.316Z,7.69
2019-02-09T00:32:39.988Z,7.69
2019-02-09T00:33:13.005Z,7.69
2019-02-09T00:33:45.961Z,7.62
2019-02-09T00:34:18.861Z,7.62
2019-02-09T00:34:51.946Z,7.62
2019-02-09T00:35:25.044Z,7.62
2019-02-09T00:35:58.260Z,7.56
2019-02-09T00:36:31.347Z,7.50
2019-02-09T00:37:04.392Z,7.50
2019-02-09T00:37:37.378Z,7.50
2019-02-09T00:38:10.516Z,7.44
2019-02-09T00:38:43.639Z,7.44
2019-02-09T00:39:16.770Z,7.44
2019-02-09T00:39:49.789Z,7.44
2019-02-09T00:40:23.241Z,7.37
2019-02-09T00:40:56.263Z,7.37
2019-02-09T00:41:29.282Z,7.37
2019-02-09T00:42:02.262Z,7.37
2019-02-09T00:42:35.194Z,7.37
2019-02-09T00:43:08.308Z,7.31
2019-02-09T00:43:41.342Z,7.31
2019-02-09T00:44:14.768Z,7.31
2019-02-09T00:44:47.798Z,7.31
2019-02-09T00:45:21.425Z,7.25
2019-02-09T00:45:54.507Z,7.25
2019-02-09T00:46:27.628Z,7.25
2019-02-09T00:47:00.728Z,7.25
2019-02-09T00:47:34.644Z,7.19
2019-02-09T00:48:07.774Z,7.19
2019-02-09T00:48:40.834Z,7.19
2019-02-09T00:49:13.809Z,7.19
2019-02-09T00:49:46.856Z,7.19
2019-02-09T00:50:20.840Z,7.12
2019-02-09T00:50:53.987Z,7.12
2019-02-09T00:51:27.032Z,7.12
2019-02-09T00:52:01.222Z,7.12
2019-02-09T00:52:34.282Z,7.06
2019-02-09T00:53:07.348Z,7.06
2019-02-09T00:53:40.438Z,7.06
2019-02-09T00:54:13.557Z,7.06
2019-02-09T00:54:46.790Z,7.06
2019-02-09T00:55:20.560Z,7.06
2019-02-09T00:55:53.732Z,7.06
2019-02-09T00:56:26.890Z,7.06
2019-02-09T00:56:59.956Z,7.06
2019-02-09T00:57:33.047Z,7.06
2019-02-09T00:58:06.193Z,7.00
2019-02-09T00:58:39.212Z,7.00
2019-02-09T00:59:12.327Z,7.00
2019-02-09T00:59:45.496Z,7.00
2019-02-09T01:00:21.760Z,7.00
2019-02-09T01:00:55.060Z,7.00
2019-02-09T01:01:28.164Z,7.00
2019-02-09T01:02:01.306Z,7.00
2019-02-09T01:02:34.415Z,7.00
2019-02-09T01:03:07.455Z,7.00
2019-02-09T01:03:40.454Z,7.00
2019-02-09T01:04:13.606Z,7.00
2019-02-09T01:04:46.568Z,6.94
2019-02-09T01:05:24.446Z,7.00
2019-02-09T01:05:57.438Z,7.00
2019-02-09T01:06:30.452Z,7.00
2019-02-09T01:07:03.742Z,7.00
2019-02-09T01:07:36.902Z,7.06
2019-02-09T01:08:11.110Z,7.06
2019-02-09T01:08:44.360Z,7.00
2019-02-09T01:09:18.389Z,7.00
2019-02-09T01:09:51.439Z,7.00
2019-02-09T01:10:26.764Z,7.00
2019-02-09T01:10:59.718Z,6.94
2019-02-09T01:11:32.773Z,6.94
2019-02-09T01:12:05.832Z,6.94
2019-02-09T01:12:39.014Z,6.94
2019-02-09T01:13:12.180Z,6.94
2019-02-09T01:13:45.305Z,6.94
2019-02-09T01:14:18.216Z,6.94
2019-02-09T01:14:51.320Z,6.94
2019-02-09T01:15:24.658Z,6.94
2019-02-09T01:15:57.694Z,6.94
2019-02-09T01:16:30.658Z,6.94
2019-02-09T01:17:03.797Z,6.94
2019-02-09T01:17:36.864Z,6.94
2019-02-09T01:18:10.010Z,6.94
2019-02-09T01:18:43.077Z,6.94
2019-02-09T01:19:17.736Z,6.94
2019-02-09T01:19:50.815Z,6.87
2019-02-09T01:20:25.904Z,6.87
2019-02-09T01:20:58.954Z,6.87
2019-02-09T01:21:32.104Z,6.87
2019-02-09T01:22:05.186Z,6.87
2019-02-09T01:22:38.202Z,6.87
2019-02-09T01:23:11.266Z,6.87
2019-02-09T01:23:44.293Z,6.87
2019-02-09T01:24:17.357Z,6.87
2019-02-09T01:24:50.321Z,6.87
2019-02-09T01:25:23.367Z,6.94
2019-02-09T01:25:56.420Z,6.94
2019-02-09T01:26:30.945Z,6.94
2019-02-09T01:27:04.012Z,6.87
2019-02-09T01:27:37.156Z,6.87
2019-02-09T01:28:10.288Z,6.87
2019-02-09T01:28:43.253Z,6.87
2019-02-09T01:29:16.302Z,6.87
2019-02-09T01:29:49.328Z,6.87
2019-02-09T01:30:24.099Z,6.81
2019-02-09T01:30:57.117Z,6.81
2019-02-09T01:31:31.835Z,6.81
2019-02-09T01:32:04.903Z,6.81
2019-02-09T01:32:38.616Z,6.87
2019-02-09T01:33:11.709Z,6.81
2019-02-09T01:33:44.758Z,6.81
2019-02-09T01:34:17.789Z,6.87
2019-02-09T01:34:50.692Z,6.87
2019-02-09T01:35:24.034Z,6.87
2019-02-09T01:35:57.055Z,6.87
2019-02-09T01:36:30.260Z,6.87
2019-02-09T01:37:03.622Z,6.87
2019-02-09T01:37:36.765Z,6.87
2019-02-09T01:38:09.946Z,6.87
2019-02-09T01:38:43.007Z,6.87
2019-02-09T01:39:16.115Z,6.87
2019-02-09T01:39:49.169Z,6.87
2019-02-09T01:40:24.956Z,6.87
2019-02-09T01:40:59.493Z,6.87
2019-02-09T01:41:32.652Z,6.87
2019-02-09T01:42:05.716Z,6.87
2019-02-09T01:42:38.898Z,6.87
2019-02-09T01:43:11.930Z,6.87
2019-02-09T01:43:45.052Z,6.87
2019-02-09T01:44:19.636Z,6.87
2019-02-09T01:44:52.671Z,6.87
2019-02-09T01:45:28.061Z,6.81
2019-02-09T01:46:01.320Z,6.81
2019-02-09T01:46:35.425Z,6.81
2019-02-09T01:47:08.431Z,6.87
2019-02-09T01:47:41.517Z,6.87
2019-02-09T01:48:14.550Z,6.81
2019-02-09T01:48:47.639Z,6.81
2019-02-09T01:49:20.672Z,6.81
2019-02-09T01:49:53.585Z,6.81
2019-02-09T01:50:30.365Z,6.75
2019-02-09T01:51:03.521Z,6.75
2019-02-09T01:51:36.472Z,6.75
2019-02-09T01:52:09.545Z,6.75
2019-02-09T01:52:42.615Z,6.75
2019-02-09T01:53:15.624Z,6.75
2019-02-09T01:53:48.595Z,6.75
2019-02-09T01:54:21.561Z,6.75
2019-02-09T01:54:54.638Z,6.75
2019-02-09T01:55:28.550Z,6.75
2019-02-09T01:56:01.701Z,6.75
2019-02-09T01:56:34.659Z,6.75
2019-02-09T01:57:07.716Z,6.75
2019-02-09T01:57:40.689Z,6.75
2019-02-09T01:58:13.951Z,6.75
2019-02-09T01:58:46.865Z,6.75
2019-02-09T01:59:19.848Z,6.75
2019-02-09T01:59:52.843Z,6.81
2019-02-09T02:00:29.955Z,6.81
2019-02-09T02:01:03.766Z,6.75
2019-02-09T02:01:36.736Z,6.75
2019-02-09T02:02:09.771Z,6.75
2019-02-09T02:02:43.934Z,6.75
2019-02-09T02:03:17.033Z,6.75
2019-02-09T02:03:50.071Z,6.75
2019-02-09T02:04:22.959Z,6.75
2019-02-09T02:04:55.918Z,6.75
2019-02-09T02:05:28.989Z,6.75
2019-02-09T02:06:02.145Z,6.75
2019-02-09T02:06:35.255Z,6.75
2019-02-09T02:07:11.211Z,6.81
2019-02-09T02:07:44.179Z,6.75
2019-02-09T02:08:22.721Z,6.81
2019-02-09T02:08:55.627Z,6.81
2019-02-09T02:09:29.301Z,6.81
2019-02-09T02:10:03.253Z,6.87
2019-02-09T02:10:37.405Z,6.87
2019-02-09T02:11:11.417Z,6.87
2019-02-09T02:11:44.477Z,6.94
2019-02-09T02:12:17.476Z,6.94
2019-02-09T02:12:50.668Z,6.87
2019-02-09T02:13:23.544Z,6.87
2019-02-09T02:13:56.587Z,6.87
2019-02-09T02:14:29.639Z,6.87
2019-02-09T02:15:04.817Z,6.87
2019-02-09T02:15:38.371Z,6.87
2019-02-09T02:16:11.590Z,6.87
2019-02-09T02:16:44.821Z,6.87
2019-02-09T02:17:17.861Z,6.87
2019-02-09T02:17:50.973Z,6.87
2019-02-09T02:18:24.047Z,6.87
2019-02-09T02:18:57.049Z,6.87
2019-02-09T02:19:31.623Z,6.81
2019-02-09T02:20:07.395Z,6.81
2019-02-09T02:20:42.077Z,6.81
2019-02-09T02:21:15.057Z,6.81
2019-02-09T02:21:48.163Z,6.81
2019-02-09T02:22:21.058Z,6.81
2019-02-09T02:22:54.170Z,6.75
2019-02-09T02:23:28.289Z,6.75
2019-02-09T02:24:02.179Z,6.75
2019-02-09T02:24:35.187Z,6.75
2019-02-09T02:25:08.468Z,6.75
2019-02-09T02:25:41.585Z,6.75
2019-02-09T02:26:14.509Z,6.75
2019-02-09T02:26:47.515Z,6.75
2019-02-09T02:27:22.205Z,6.75
2019-02-09T02:27:55.330Z,6.69
2019-02-09T02:28:28.226Z,6.69
2019-02-09T02:29:01.227Z,6.69
2019-02-09T02:29:34.120Z,6.69
2019-02-09T02:30:22.149Z,6.69
2019-02-09T02:30:47.027Z,6.62
2019-02-09T02:31:20.019Z,6.62
2019-02-09T02:31:54.016Z,6.62
2019-02-09T02:32:26.992Z,6.62
2019-02-09T02:33:01.658Z,6.62
2019-02-09T02:33:34.690Z,6.56
2019-02-09T02:34:07.690Z,6.56
2019-02-09T02:34:40.682Z,6.56
2019-02-09T02:35:14.839Z,6.56
2019-02-09T02:35:47.950Z,6.50
2019-02-09T02:36:20.902Z,6.50
2019-02-09T02:36:54.104Z,6.50
2019-02-09T02:37:27.009Z,6.50
2019-02-09T02:37:59.945Z,6.44
2019-02-09T02:38:32.915Z,6.44
2019-02-09T02:39:09.702Z,6.44
2019-02-09T02:39:42.737Z,6.44
2019-02-09T02:40:17.413Z,6.37
2019-02-09T02:40:50.483Z,6.37
2019-02-09T02:41:23.375Z,6.37
2019-02-09T02:41:56.285Z,6.37
2019-02-09T02:42:29.163Z,6.37
2019-02-09T02:43:03.775Z,6.37
2019-02-09T02:43:36.897Z,6.37
2019-02-09T02:44:10.041Z,6.37
2019-02-09T02:44:43.095Z,6.37
2019-02-09T02:45:16.709Z,6.37
2019-02-09T02:45:49.765Z,6.37
2019-02-09T02:46:22.627Z,6.37
2019-02-09T02:46:55.787Z,6.31
2019-02-09T02:47:28.876Z,6.31
2019-02-09T02:48:01.963Z,6.31
2019-02-09T02:48:35.033Z,6.31
2019-02-09T02:49:08.178Z,6.31
2019-02-09T02:49:42.039Z,6.31
2019-02-09T02:50:17.589Z,6.25
2019-02-09T02:50:50.655Z,6.25
2019-02-09T02:51:23.671Z,6.31
2019-02-09T02:51:56.704Z,6.31
2019-02-09T02:52:29.801Z,6.31
2019-02-09T02:53:02.989Z,6.37
2019-02-09T02:53:36.066Z,6.37
2019-02-09T02:54:10.289Z,6.44
2019-02-09T02:54:44.923Z,6.44
2019-02-09T02:55:20.706Z,6.44
2019-02-09T02:55:53.684Z,6.44
2019-02-09T02:56:26.629Z,6.44
2019-02-09T02:56:59.682Z,6.44
2019-02-09T02:57:32.954Z,6.44
2019-02-09T02:58:05.998Z,6.50
2019-02-09T02:58:38.965Z,6.50
2019-02-09T02:59:11.981Z,6.50
2019-02-09T02:59:44.980Z,6.50
2019-02-09T03:00:31.899Z,6.50
2019-02-09T03:00:57.654Z,6.56
2019-02-09T03:01:30.456Z,6.56
2019-02-09T03:02:03.960Z,6.56
2019-02-09T03:02:36.983Z,6.56
2019-02-09T03:03:09.999Z,6.56
2019-02-09T03:03:43.030Z,6.62
2019-02-09T03:04:16.017Z,6.62
2019-02-09T03:04:49.053Z,6.62
2019-02-09T03:05:23.125Z,6.62
2019-02-09T03:05:57.193Z,6.62
2019-02-09T03:06:30.180Z,6.62
2019-02-09T03:07:03.242Z,6.69
2019-02-09T03:07:36.343Z,6.69
2019-02-09T03:08:11.201Z,6.69
2019-02-09T03:08:44.309Z,6.69
2019-02-09T03:09:17.295Z,6.69
2019-02-09T03:09:50.292Z,6.69
2019-02-09T03:10:23.528Z,6.75
2019-02-09T03:10:56.516Z,6.75
2019-02-09T03:11:29.660Z,6.75
2019-02-09T03:12:02.661Z,6.81
2019-02-09T03:12:35.875Z,6.81
2019-02-09T03:13:08.885Z,6.81
2019-02-09T03:13:41.755Z,6.81
2019-02-09T03:14:14.746Z,6.81
2019-02-09T03:14:48.910Z,6.81
2019-02-09T03:15:27.665Z,6.81
2019-02-09T03:16:00.735Z,6.81
2019-02-09T03:16:33.723Z,6.75
2019-02-09T03:17:06.764Z,6.75
2019-02-09T03:17:39.779Z,6.75
2019-02-09T03:18:12.998Z,6.69
2019-02-09T03:18:45.928Z,6.69
2019-02-09T03:19:19.284Z,6.62
2019-02-09T03:19:52.403Z,6.62
2019-02-09T03:20:25.618Z,6.56
2019-02-09T03:20:58.619Z,6.56
2019-02-09T03:21:31.562Z,6.56
2019-02-09T03:22:04.652Z,6.56
2019-02-09T03:22:39.390Z,6.50
2019-02-09T03:23:12.396Z,6.50
2019-02-09T03:23:45.504Z,6.50
2019-02-09T03:24:18.416Z,6.50
2019-02-09T03:24:51.258Z,6.50
2019-02-09T03:25:27.217Z,6.50
2019-02-09T03:26:01.271Z,6.44
2019-02-09T03:26:34.277Z,6.44
2019-02-09T03:27:07.313Z,6.44
2019-02-09T03:27:40.241Z,6.44
2019-02-09T03:28:13.268Z,6.44
2019-02-09T03:28:46.232Z,6.44
2019-02-09T03:29:19.258Z,6.44
2019-02-09T03:29:52.378Z,6.44
2019-02-09T03:30:25.888Z,6.44
2019-02-09T03:30:58.934Z,6.44
2019-02-09T03:31:32.049Z,6.44
2019-02-09T03:32:05.130Z,6.44
2019-02-09T03:32:38.159Z,6.44
2019-02-09T03:33:11.164Z,6.44
2019-02-09T03:33:44.136Z,6.37
2019-02-09T03:34:17.096Z,6.37
2019-02-09T03:34:50.071Z,6.37
2019-02-09T03:35:23.406Z,6.37
2019-02-09T03:35:56.496Z,6.37
2019-02-09T03:36:29.535Z,6.31
2019-02-09T03:37:02.514Z,6.31
2019-02-09T03:37:35.530Z,6.31
2019-02-09T03:38:08.665Z,6.31
2019-02-09T03:38:41.710Z,6.31
2019-02-09T03:39:14.888Z,6.31
2019-02-09T03:39:48.058Z,6.31
2019-02-09T03:40:23.397Z,6.31
2019-02-09T03:40:56.548Z,6.25
2019-02-09T03:41:29.560Z,6.25
2019-02-09T03:42:02.597Z,6.25
2019-02-09T03:42:35.584Z,6.25
2019-02-09T03:43:08.649Z,6.25
2019-02-09T03:43:41.703Z,6.25
2019-02-09T03:44:14.630Z,6.25
2019-02-09T03:44:47.760Z,6.19
2019-02-09T03:45:24.128Z,6.19
2019-02-09T03:45:57.024Z,6.19
2019-02-09T03:46:30.130Z,6.19
2019-02-09T03:47:04.007Z,6.19
2019-02-09T03:47:37.028Z,6.19
2019-02-09T03:48:10.305Z,6.19
2019-02-09T03:48:43.359Z,6.19
2019-02-09T03:49:16.396Z,6.19
2019-02-09T03:49:49.452Z,6.12
2019-02-09T03:50:26.396Z,6.12
2019-02-09T03:50:59.448Z,6.12
2019-02-09T03:51:32.586Z,6.12
2019-02-09T03:52:05.752Z,6.12
2019-02-09T03:52:38.844Z,6.12
2019-02-09T03:53:11.878Z,6.19
2019-02-09T03:53:46.658Z,6.12
2019-02-09T03:54:19.772Z,6.12
2019-02-09T03:54:52.851Z,6.12
2019-02-09T03:55:26.132Z,6.12
2019-02-09T03:55:59.978Z,6.12
2019-02-09T03:56:33.018Z,6.12
2019-02-09T03:57:06.002Z,6.12
2019-02-09T03:57:39.167Z,6.12
2019-02-09T03:58:12.210Z,6.12
2019-02-09T03:58:46.264Z,6.12
2019-02-09T03:59:19.228Z,6.12
2019-02-09T03:59:52.214Z,6.12
2019-02-09T04:00:27.494Z,6.12
2019-02-09T04:01:00.724Z,6.12
2019-02-09T04:01:33.784Z,6.12
2019-02-09T04:02:06.976Z,6.12
2019-02-09T04:02:39.984Z,6.12
2019-02-09T04:03:12.918Z,6.06
2019-02-09T04:03:45.947Z,6.06
2019-02-09T04:04:18.932Z,6.06
2019-02-09T04:04:52.065Z,6.06
2019-02-09T04:05:25.172Z,6.06
2019-02-09T04:05:58.215Z,6.06
2019-02-09T04:06:31.201Z,6.06
2019-02-09T04:07:04.249Z,6.06
2019-02-09T04:07:37.488Z,6.00
2019-02-09T04:08:10.586Z,6.00
2019-02-09T04:08:43.479Z,6.00
2019-02-09T04:09:16.528Z,5.94
2019-02-09T04:09:49.525Z,5.94
2019-02-09T04:10:24.186Z,5.94
2019-02-09T04:10:57.288Z,5.94
2019-02-09T04:11:30.305Z,5.94
2019-02-09T04:12:03.840Z,5.94
2019-02-09T04:12:36.993Z,5.94
2019-02-09T04:13:10.031Z,5.94
2019-02-09T04:13:42.802Z,5.94
2019-02-09T04:14:15.790Z,5.94
2019-02-09T04:14:48.903Z,5.87
2019-02-09T04:15:23.498Z,5.87
2019-02-09T04:15:56.420Z,5.87
2019-02-09T04:16:29.429Z,5.87
2019-02-09T04:17:02.542Z,5.87
2019-02-09T04:17:35.583Z,5.87
2019-02-09T04:18:08.608Z,5.94
2019-02-09T04:18:41.627Z,5.94
2019-02-09T04:19:14.659Z,5.94
2019-02-09T04:19:47.678Z,5.94
2019-02-09T04:20:21.388Z,5.94
2019-02-09T04:20:54.408Z,5.94
2019-02-09T04:21:27.404Z,5.94
2019-02-09T04:22:00.217Z,5.94
2019-02-09T04:22:33.229Z,5.94
2019-02-09T04:23:06.351Z,5.94
2019-02-09T04:23:39.385Z,5.94
2019-02-09T04:24:12.273Z,5.94
2019-02-09T04:24:45.279Z,5.94
2019-02-09T04:25:18.708Z,5.87
2019-02-09T04:25:51.701Z,5.87
2019-02-09T04:26:24.829Z,5.87
2019-02-09T04:26:57.826Z,5.87
2019-02-09T04:27:30.826Z,5.87
2019-02-09T04:28:03.899Z,5.87
2019-02-09T04:28:37.004Z,5.87
2019-02-09T04:29:09.978Z,5.87
2019-02-09T04:29:42.878Z,5.87
2019-02-09T04:30:24.426Z,5.87
2019-02-09T04:31:05.567Z,5.87
2019-02-09T04:31:32.275Z,5.87
2019-02-09T04:32:05.370Z,5.87
2019-02-09T04:32:38.274Z,5.87
2019-02-09T04:33:11.211Z,5.87
2019-02-09T04:33:44.135Z,5.87
2019-02-09T04:34:16.949Z,5.87
2019-02-09T04:34:49.985Z,5.87
2019-02-09T04:35:25.050Z,5.87
2019-02-09T04:35:58.055Z,5.87
2019-02-09T04:36:31.062Z,5.87
2019-02-09T04:37:04.182Z,5.87
2019-02-09T04:37:37.290Z,5.87
2019-02-09T04:38:10.220Z,5.87
2019-02-09T04:38:43.243Z,5.87
2019-02-09T04:39:16.249Z,5.87
2019-02-09T04:39:49.258Z,5.87
2019-02-09T04:40:25.134Z,5.87
2019-02-09T04:40:58.352Z,5.87
2019-02-09T04:41:31.343Z,5.87
2019-02-09T04:42:04.467Z,5.87
2019-02-09T04:42:37.567Z,5.87
2019-02-09T04:43:10.698Z,5.94
2019-02-09T04:43:43.819Z,5.94
2019-02-09T04:44:16.717Z,5.87
2019-02-09T04:44:49.750Z,5.87
2019-02-09T04:45:23.072Z,5.87
2019-02-09T04:45:56.239Z,5.87
2019-02-09T04:46:29.237Z,5.87
2019-02-09T04:47:02.254Z,5.94
2019-02-09T04:47:35.384Z,5.94
2019-02-09T04:48:08.387Z,5.94
2019-02-09T04:48:41.293Z,5.94
2019-02-09T04:49:14.327Z,5.94
2019-02-09T04:49:47.356Z,6.00
2019-02-09T04:50:21.457Z,6.00
2019-02-09T04:50:54.546Z,6.00
2019-02-09T04:51:27.553Z,6.06
2019-02-09T04:52:02.228Z,6.06
2019-02-09T04:52:35.165Z,6.12
2019-02-09T04:53:08.182Z,6.12
2019-02-09T04:53:41.146Z,6.19
2019-02-09T04:54:14.149Z,6.19
2019-02-09T04:54:47.607Z,6.19
2019-02-09T04:55:22.845Z,6.19
2019-02-09T04:55:55.881Z,6.25
2019-02-09T04:56:28.885Z,6.19
2019-02-09T04:57:02.007Z,6.19
2019-02-09T04:57:35.076Z,6.19
2019-02-09T04:58:08.144Z,6.19
2019-02-09T04:58:41.129Z,6.19
2019-02-09T04:59:14.156Z,6.19
2019-02-09T04:59:47.261Z,6.12
2019-02-09T05:00:23.797Z,6.19
2019-02-09T05:00:56.835Z,6.19
2019-02-09T05:01:29.853Z,6.19
2019-02-09T05:02:02.903Z,6.19
2019-02-09T05:02:35.941Z,6.19
2019-02-09T05:03:08.953Z,6.25
2019-02-09T05:03:42.013Z,6.25
2019-02-09T05:04:15.024Z,6.25
2019-02-09T05:04:48.088Z,6.31
2019-02-09T05:05:21.187Z,6.31
2019-02-09T05:05:54.239Z,6.37
2019-02-09T05:06:27.348Z,6.37
2019-02-09T05:07:00.415Z,6.37
2019-02-09T05:07:33.322Z,6.44
2019-02-09T05:08:06.498Z,6.44
2019-02-09T05:08:39.297Z,6.44
2019-02-09T05:09:12.241Z,6.37
2019-02-09T05:09:45.391Z,6.37
2019-02-09T05:10:19.423Z,6.37
2019-02-09T05:10:52.457Z,6.31
2019-02-09T05:11:25.489Z,6.31
2019-02-09T05:11:59.576Z,6.25
2019-02-09T05:12:32.570Z,6.25
2019-02-09T05:13:05.540Z,6.19
2019-02-09T05:13:38.667Z,6.19
2019-02-09T05:14:11.666Z,6.19
2019-02-09T05:14:44.742Z,6.19
2019-02-09T05:15:18.412Z,6.19
2019-02-09T05:15:51.500Z,6.25
2019-02-09T05:16:25.502Z,6.25
2019-02-09T05:16:58.587Z,6.19
2019-02-09T05:17:31.369Z,6.19
2019-02-09T05:18:05.487Z,6.19
2019-02-09T05:18:38.288Z,6.25
2019-02-09T05:19:11.237Z,6.25
2019-02-09T05:19:44.251Z,6.31
2019-02-09T05:20:19.992Z,6.31
2019-02-09T05:20:53.974Z,6.31
2019-02-09T05:21:27.316Z,6.31
2019-02-09T05:22:01.145Z,6.31
2019-02-09T05:22:34.197Z,6.37
2019-02-09T05:23:07.173Z,6.37
2019-02-09T05:23:40.210Z,6.37
2019-02-09T05:24:13.185Z,6.37
2019-02-09T05:24:46.298Z,6.37
2019-02-09T05:25:19.641Z,6.37
2019-02-09T05:25:52.692Z,6.31
2019-02-09T05:26:27.010Z,6.31
2019-02-09T05:26:59.987Z,6.25
2019-02-09T05:27:32.973Z,6.25
2019-02-09T05:28:05.995Z,6.25
2019-02-09T05:28:38.888Z,6.25
2019-02-09T05:29:11.931Z,6.25
2019-02-09T05:29:45.031Z,6.19
2019-02-09T05:30:24.225Z,6.19
2019-02-09T05:30:57.332Z,6.19
2019-02-09T05:31:30.375Z,6.19
2019-02-09T05:32:03.529Z,6.19
2019-02-09T05:32:36.577Z,6.19
2019-02-09T05:33:11.188Z,6.19
2019-02-09T05:33:44.231Z,6.12
2019-02-09T05:34:17.230Z,6.12
2019-02-09T05:34:50.247Z,6.12
2019-02-09T05:35:23.377Z,6.12
2019-02-09T05:35:56.313Z,6.12
2019-02-09T05:36:29.336Z,6.06
2019-02-09T05:37:02.468Z,6.06
2019-02-09T05:37:36.602Z,6.00
2019-02-09T05:38:09.533Z,6.00
2019-02-09T05:38:42.518Z,5.94
2019-02-09T05:39:15.380Z,6.00
2019-02-09T05:39:48.498Z,5.94
2019-02-09T05:40:22.182Z,5.94
2019-02-09T05:40:56.678Z,5.94
2019-02-09T05:41:29.608Z,5.94
2019-02-09T05:42:02.810Z,5.94
2019-02-09T05:42:35.970Z,5.94
2019-02-09T05:43:08.804Z,5.87
2019-02-09T05:43:42.034Z,5.87
2019-02-09T05:44:15.021Z,5.87
2019-02-09T05:44:48.054Z,5.87
2019-02-09T05:45:23.590Z,5.87
2019-02-09T05:45:56.590Z,5.81
2019-02-09T05:46:29.434Z,5.81
2019-02-09T05:47:02.495Z,5.81
2019-02-09T05:47:35.380Z,5.81
2019-02-09T05:48:08.511Z,5.81
2019-02-09T05:48:41.502Z,5.75
2019-02-09T05:49:14.552Z,5.81
2019-02-09T05:49:48.354Z,5.81
2019-02-09T05:50:21.982Z,5.75
2019-02-09T05:50:54.861Z,5.81
2019-02-09T05:51:27.914Z,5.81
2019-02-09T05:52:00.912Z,5.81
2019-02-09T05:52:35.087Z,5.81
2019-02-09T05:53:09.429Z,5.81
2019-02-09T05:53:42.475Z,5.81
2019-02-09T05:54:15.373Z,5.81
2019-02-09T05:54:48.445Z,5.87
2019-02-09T05:55:21.574Z,5.81
2019-02-09T05:55:54.762Z,5.87
2019-02-09T05:56:27.751Z,5.81
2019-02-09T05:57:00.793Z,5.81
2019-02-09T05:57:34.814Z,5.81
2019-02-09T05:58:07.848Z,5.81
2019-02-09T05:58:40.741Z,5.75
2019-02-09T05:59:13.584Z,5.75
2019-02-09T05:59:46.587Z,5.81
2019-02-09T06:00:29.160Z,5.75
2019-02-09T06:01:02.062Z,5.81
2019-02-09T06:01:35.128Z,5.81
2019-02-09T06:02:08.224Z,5.81
2019-02-09T06:02:41.232Z,5.81
2019-02-09T06:03:14.249Z,5.81
2019-02-09T06:03:47.200Z,5.75
2019-02-09T06:04:20.039Z,5.75
2019-02-09T06:04:54.560Z,5.75
2019-02-09T06:05:27.628Z,5.75
2019-02-09T06:06:00.638Z,5.75
2019-02-09T06:06:33.660Z,5.69
2019-02-09T06:07:06.876Z,5.75
2019-02-09T06:07:39.891Z,5.75
2019-02-09T06:08:12.948Z,5.75
2019-02-09T06:08:45.938Z,5.75
2019-02-09T06:09:18.842Z,5.75
2019-02-09T06:09:51.844Z,5.75
2019-02-09T06:10:24.919Z,5.75
2019-02-09T06:10:57.930Z,5.75
2019-02-09T06:11:30.957Z,5.75
2019-02-09T06:12:04.169Z,5.75
2019-02-09T06:12:37.165Z,5.75
2019-02-09T06:13:10.564Z,5.75
2019-02-09T06:13:43.638Z,5.75
2019-02-09T06:14:16.678Z,5.75
2019-02-09T06:14:49.628Z,5.75
2019-02-09T06:15:22.960Z,5.75
2019-02-09T06:15:55.910Z,5.75
2019-02-09T06:16:30.741Z,5.75
2019-02-09T06:17:04.056Z,5.75
2019-02-09T06:17:37.008Z,5.75
2019-02-09T06:18:10.188Z,5.75
2019-02-09T06:18:43.130Z,5.75
2019-02-09T06:19:16.064Z,5.75
2019-02-09T06:19:49.052Z,5.81
2019-02-09T06:20:23.644Z,5.81
2019-02-09T06:20:56.688Z,5.87
2019-02-09T06:21:29.735Z,5.87
2019-02-09T06:22:02.972Z,5.87
2019-02-09T06:22:36.031Z,5.87
2019-02-09T06:23:09.006Z,5.87
2019-02-09T06:23:42.050Z,5.87
2019-02-09T06:24:15.052Z,5.87
2019-02-09T06:24:48.092Z,5.87
2019-02-09T06:25:21.231Z,5.81
2019-02-09T06:25:54.370Z,5.81
2019-02-09T06:26:27.334Z,5.81
2019-02-09T06:27:00.370Z,5.81
2019-02-09T06:27:33.492Z,5.81
2019-02-09T06:28:06.664Z,5.81
2019-02-09T06:28:40.480Z,5.81
2019-02-09T06:29:13.342Z,5.81
2019-02-09T06:29:46.481Z,5.81
2019-02-09T06:30:25.154Z,5.81
2019-02-09T06:30:58.135Z,5.81
2019-02-09T06:31:31.090Z,5.81
2019-02-09T06:32:04.127Z,5.81
2019-02-09T06:32:37.188Z,5.81
2019-02-09T06:33:10.324Z,5.75
2019-02-09T06:33:43.491Z,5.75
2019-02-09T06:34:16.549Z,5.75
2019-02-09T06:34:49.630Z,5.75
2019-02-09T06:35:23.248Z,5.69
2019-02-09T06:35:56.411Z,5.69
2019-02-09T06:36:29.431Z,5.69
2019-02-09T06:37:02.486Z,5.69
2019-02-09T06:37:35.577Z,5.69
2019-02-09T06:38:09.704Z,5.69
2019-02-09T06:38:42.823Z,5.69
2019-02-09T06:39:15.781Z,5.69
2019-02-09T06:39:48.879Z,5.69
2019-02-09T06:40:22.471Z,5.69
2019-02-09T06:40:55.516Z,5.69
2019-02-09T06:41:28.612Z,5.69
2019-02-09T06:42:01.592Z,5.69
2019-02-09T06:42:34.598Z,5.69
2019-02-09T06:43:07.656Z,5.69
2019-02-09T06:43:40.526Z,5.69
2019-02-09T06:44:13.613Z,5.69
2019-02-09T06:44:46.743Z,5.69
2019-02-09T06:45:21.606Z,5.69
2019-02-09T06:45:54.734Z,5.75
2019-02-09T06:46:27.802Z,5.75
2019-02-09T06:47:00.979Z,5.75
2019-02-09T06:47:33.943Z,5.75
2019-02-09T06:48:25.995Z,5.75
2019-02-09T06:48:59.185Z,5.75
2019-02-09T06:49:32.399Z,5.69
2019-02-09T06:50:08.811Z,5.69
2019-02-09T06:50:41.739Z,5.69
2019-02-09T06:51:14.900Z,5.69
2019-02-09T06:51:47.970Z,5.69
2019-02-09T06:52:21.007Z,5.69
2019-02-09T06:52:55.208Z,5.69
2019-02-09T06:53:28.231Z,5.69
2019-02-09T06:54:01.135Z,5.69
2019-02-09T06:54:34.220Z,5.69
2019-02-09T06:55:09.961Z,5.69
2019-02-09T06:55:42.962Z,5.69
2019-02-09T06:56:15.932Z,5.62
2019-02-09T06:56:49.056Z,5.69
2019-02-09T06:57:22.009Z,5.69
2019-02-09T06:57:55.019Z,5.69
2019-02-09T06:58:27.958Z,5.69
2019-02-09T06:59:00.953Z,5.69
2019-02-09T06:59:33.915Z,5.69
2019-02-09T07:00:10.219Z,5.69
2019-02-09T07:00:43.312Z,5.75
2019-02-09T07:01:16.206Z,5.75
2019-02-09T07:01:49.321Z,5.75
2019-02-09T07:02:22.305Z,5.75
2019-02-09T07:02:55.327Z,5.69
2019-02-09T07:03:28.349Z,5.69
2019-02-09T07:04:01.404Z,5.69
2019-02-09T07:04:34.667Z,5.75
2019-02-09T07:05:13.001Z,5.69
2019-02-09T07:05:47.039Z,5.69
2019-02-09T07:06:20.093Z,5.75
2019-02-09T07:06:53.034Z,5.75
2019-02-09T07:07:26.111Z,5.81
2019-02-09T07:07:59.095Z,5.75
2019-02-09T07:08:32.261Z,5.75
2019-02-09T07:09:08.325Z,5.75
2019-02-09T07:09:41.493Z,5.75
2019-02-09T07:10:20.493Z,5.81
2019-02-09T07:10:53.691Z,5.75
2019-02-09T07:11:26.748Z,5.75
2019-02-09T07:12:00.317Z,5.75
2019-02-09T07:12:33.411Z,5.75
2019-02-09T07:13:06.787Z,5.75
2019-02-09T07:13:39.673Z,5.81
2019-02-09T07:14:12.739Z,5.81
2019-02-09T07:14:45.829Z,5.81
2019-02-09T07:15:28.238Z,5.81
2019-02-09T07:16:01.240Z,5.81
2019-02-09T07:16:34.187Z,5.81
2019-02-09T07:17:07.089Z,5.81
2019-02-09T07:17:40.011Z,5.81
2019-02-09T07:18:13.006Z,5.81
2019-02-09T07:18:45.929Z,5.81
2019-02-09T07:19:18.902Z,5.81
2019-02-09T07:19:51.907Z,5.81
2019-02-09T07:20:24.986Z,5.87
2019-02-09T07:21:00.369Z,5.87
2019-02-09T07:21:33.402Z,5.87
2019-02-09T07:22:08.163Z,5.87
2019-02-09T07:22:41.168Z,5.87
2019-02-09T07:23:14.399Z,5.81
2019-02-09T07:23:47.411Z,5.81
2019-02-09T07:24:20.489Z,5.81
2019-02-09T07:24:55.072Z,5.87